sensor_id;sensor_type;location;lat;lon;timestamp;pressure;altitude;pressure_sealevel;temperature;humidity
68141;BME280;54941;52.220;104.306;2023-03-19T00:02:04;95689.44;;;-9.22;81.95
68141;BME280;54941;52.220;104.306;2023-03-19T00:04:30;95695.41;;;-9.12;81.15
68141;BME280;54941;52.220;104.306;2023-03-19T00:06:58;95688.00;;;-9.01;80.10
68141;BME280;54941;52.220;104.306;2023-03-19T00:09:25;95685.41;;;-8.99;80.58
68141;BME280;54941;52.220;104.306;2023-03-19T00:11:51;95693.66;;;-8.86;81.71
68141;BME280;54941;52.220;104.306;2023-03-19T00:14:18;95694.75;;;-8.90;81.67
68141;BME280;54941;52.220;104.306;2023-03-19T00:16:44;95689.97;;;-8.93;81.96
68141;BME280;54941;52.220;104.306;2023-03-19T00:19:13;95683.78;;;-8.88;82.64
68141;BME280;54941;52.220;104.306;2023-03-19T00:21:40;95686.06;;;-8.61;82.88
68141;BME280;54941;52.220;104.306;2023-03-19T00:24:08;95677.34;;;-8.43;82.60
68141;BME280;54941;52.220;104.306;2023-03-19T00:26:34;95681.47;;;-8.19;81.54
68141;BME280;54941;52.220;104.306;2023-03-19T00:29:02;95685.38;;;-8.04;79.63
68141;BME280;54941;52.220;104.306;2023-03-19T00:31:29;95673.75;;;-7.81;78.65
68141;BME280;54941;52.220;104.306;2023-03-19T00:33:56;95674.38;;;-7.56;77.90
68141;BME280;54941;52.220;104.306;2023-03-19T00:36:23;95678.00;;;-7.49;76.72
68141;BME280;54941;52.220;104.306;2023-03-19T00:38:50;95677.53;;;-7.43;76.09
68141;BME280;54941;52.220;104.306;2023-03-19T00:41:18;95677.44;;;-7.41;77.26
68141;BME280;54941;52.220;104.306;2023-03-19T00:43:45;95678.16;;;-7.39;77.89
68141;BME280;54941;52.220;104.306;2023-03-19T00:46:14;95674.84;;;-6.95;77.87
68141;BME280;54941;52.220;104.306;2023-03-19T00:48:40;95678.63;;;-4.82;72.44
68141;BME280;54941;52.220;104.306;2023-03-19T00:51:08;95673.78;;;-2.76;63.27
68141;BME280;54941;52.220;104.306;2023-03-19T00:53:36;95676.63;;;-1.37;57.59
68141;BME280;54941;52.220;104.306;2023-03-19T00:56:04;95681.97;;;-0.31;52.56
68141;BME280;54941;52.220;104.306;2023-03-19T00:58:32;95683.63;;;0.19;48.79
68141;BME280;54941;52.220;104.306;2023-03-19T01:01:01;95683.88;;;1.43;46.39
68141;BME280;54941;52.220;104.306;2023-03-19T01:03:28;95665.09;;;1.22;45.22
68141;BME280;54941;52.220;104.306;2023-03-19T01:05:54;95669.53;;;1.81;44.43
68141;BME280;54941;52.220;104.306;2023-03-19T01:08:24;95677.03;;;2.28;43.92
68141;BME280;54941;52.220;104.306;2023-03-19T01:10:50;95667.56;;;2.74;41.07
68141;BME280;54941;52.220;104.306;2023-03-19T01:13:16;95671.84;;;1.99;42.46
68141;BME280;54941;52.220;104.306;2023-03-19T01:15:44;95667.59;;;2.14;42.61
68141;BME280;54941;52.220;104.306;2023-03-19T01:18:11;95671.44;;;3.29;40.86
68141;BME280;54941;52.220;104.306;2023-03-19T01:20:40;95664.06;;;2.90;39.93
68141;BME280;54941;52.220;104.306;2023-03-19T01:23:07;95667.28;;;3.57;39.19
68141;BME280;54941;52.220;104.306;2023-03-19T01:25:34;95661.28;;;3.79;38.24
68141;BME280;54941;52.220;104.306;2023-03-19T01:28:00;95667.47;;;3.41;38.46
68141;BME280;54941;52.220;104.306;2023-03-19T01:30:30;95666.25;;;2.78;39.85
68141;BME280;54941;52.220;104.306;2023-03-19T01:33:00;95666.63;;;3.05;39.84
68141;BME280;54941;52.220;104.306;2023-03-19T01:35:27;95660.31;;;3.01;40.11
68141;BME280;54941;52.220;104.306;2023-03-19T01:37:53;95662.25;;;3.28;39.79
68141;BME280;54941;52.220;104.306;2023-03-19T01:40:19;95659.84;;;3.26;39.73
68141;BME280;54941;52.220;104.306;2023-03-19T01:42:55;95655.50;;;3.20;39.61
68141;BME280;54941;52.220;104.306;2023-03-19T01:45:42;95653.81;;;3.99;38.64
68141;BME280;54941;52.220;104.306;2023-03-19T01:48:16;95656.53;;;3.76;39.61
68141;BME280;54941;52.220;104.306;2023-03-19T01:50:45;95660.81;;;3.90;38.08
68141;BME280;54941;52.220;104.306;2023-03-19T01:53:14;95655.19;;;3.44;38.82
68141;BME280;54941;52.220;104.306;2023-03-19T01:55:42;95648.25;;;3.38;38.68
68141;BME280;54941;52.220;104.306;2023-03-19T01:58:09;95645.38;;;4.41;37.76
68141;BME280;54941;52.220;104.306;2023-03-19T02:00:36;95638.69;;;4.19;38.52
68141;BME280;54941;52.220;104.306;2023-03-19T02:03:04;95642.16;;;3.90;37.66
68141;BME280;54941;52.220;104.306;2023-03-19T02:05:37;95640.97;;;4.56;36.84
68141;BME280;54941;52.220;104.306;2023-03-19T02:08:06;95637.53;;;5.39;35.95
68141;BME280;54941;52.220;104.306;2023-03-19T02:10:34;95634.59;;;5.49;34.91
68141;BME280;54941;52.220;104.306;2023-03-19T02:13:01;95635.94;;;5.92;34.01
68141;BME280;54941;52.220;104.306;2023-03-19T02:15:29;95630.63;;;5.39;35.57
68141;BME280;54941;52.220;104.306;2023-03-19T02:17:55;95622.81;;;5.07;35.67
68141;BME280;54941;52.220;104.306;2023-03-19T02:20:25;95619.97;;;5.23;35.48
68141;BME280;54941;52.220;104.306;2023-03-19T02:23:02;95618.00;;;5.72;34.24
68141;BME280;54941;52.220;104.306;2023-03-19T02:25:38;95611.78;;;5.47;34.45
68141;BME280;54941;52.220;104.306;2023-03-19T02:28:08;95613.06;;;5.77;34.48
68141;BME280;54941;52.220;104.306;2023-03-19T02:30:35;95609.13;;;5.81;34.19
68141;BME280;54941;52.220;104.306;2023-03-19T02:33:02;95608.03;;;6.04;33.60
68141;BME280;54941;52.220;104.306;2023-03-19T02:35:30;95596.59;;;6.06;33.99
68141;BME280;54941;52.220;104.306;2023-03-19T02:37:58;95601.84;;;7.03;31.58
68141;BME280;54941;52.220;104.306;2023-03-19T02:40:29;95598.53;;;6.90;33.54
68141;BME280;54941;52.220;104.306;2023-03-19T02:42:55;95585.97;;;6.62;32.77
68141;BME280;54941;52.220;104.306;2023-03-19T02:45:27;95588.16;;;6.19;34.86
68141;BME280;54941;52.220;104.306;2023-03-19T02:47:54;95586.19;;;6.47;32.79
68141;BME280;54941;52.220;104.306;2023-03-19T02:50:20;95577.13;;;5.92;33.99
68141;BME280;54941;52.220;104.306;2023-03-19T02:52:47;95578.81;;;6.97;31.68
68141;BME280;54941;52.220;104.306;2023-03-19T02:55:15;95578.91;;;6.38;32.04
68141;BME280;54941;52.220;104.306;2023-03-19T02:57:41;95574.97;;;6.42;33.39
68141;BME280;54941;52.220;104.306;2023-03-19T03:00:12;95571.41;;;6.75;32.09
68141;BME280;54941;52.220;104.306;2023-03-19T03:02:40;95570.00;;;6.73;31.36
68141;BME280;54941;52.220;104.306;2023-03-19T03:05:07;95562.50;;;6.84;31.89
68141;BME280;54941;52.220;104.306;2023-03-19T03:07:36;95564.28;;;6.77;32.14
68141;BME280;54941;52.220;104.306;2023-03-19T03:10:02;95563.78;;;7.20;31.50
68141;BME280;54941;52.220;104.306;2023-03-19T03:12:29;95554.28;;;6.56;31.91
68141;BME280;54941;52.220;104.306;2023-03-19T03:14:56;95549.59;;;7.55;31.27
68141;BME280;54941;52.220;104.306;2023-03-19T03:17:22;95549.13;;;7.33;31.41
68141;BME280;54941;52.220;104.306;2023-03-19T03:19:50;95545.81;;;8.45;29.49
68141;BME280;54941;52.220;104.306;2023-03-19T03:22:16;95546.47;;;7.02;32.33
68141;BME280;54941;52.220;104.306;2023-03-19T03:24:43;95540.97;;;7.05;31.49
68141;BME280;54941;52.220;104.306;2023-03-19T03:27:09;95537.22;;;7.77;31.71
68141;BME280;54941;52.220;104.306;2023-03-19T03:29:36;95530.75;;;7.74;30.74
68141;BME280;54941;52.220;104.306;2023-03-19T03:32:02;95531.47;;;7.50;31.52
68141;BME280;54941;52.220;104.306;2023-03-19T03:34:29;95524.72;;;7.87;30.83
68141;BME280;54941;52.220;104.306;2023-03-19T03:36:59;95519.94;;;7.66;32.14
68141;BME280;54941;52.220;104.306;2023-03-19T03:39:26;95517.03;;;7.87;30.56
68141;BME280;54941;52.220;104.306;2023-03-19T03:41:52;95509.19;;;8.07;30.85
68141;BME280;54941;52.220;104.306;2023-03-19T03:44:22;95507.94;;;8.41;30.45
68141;BME280;54941;52.220;104.306;2023-03-19T03:46:48;95501.28;;;9.06;29.16
68141;BME280;54941;52.220;104.306;2023-03-19T03:49:14;95492.19;;;8.73;29.53
68141;BME280;54941;52.220;104.306;2023-03-19T03:51:41;95489.59;;;8.73;30.11
68141;BME280;54941;52.220;104.306;2023-03-19T03:54:09;95487.97;;;8.79;29.78
68141;BME280;54941;52.220;104.306;2023-03-19T03:56:35;95485.03;;;8.57;30.19
68141;BME280;54941;52.220;104.306;2023-03-19T03:59:01;95479.13;;;8.57;30.33
68141;BME280;54941;52.220;104.306;2023-03-19T04:01:28;95466.19;;;8.82;29.54
68141;BME280;54941;52.220;104.306;2023-03-19T04:03:54;95469.41;;;9.66;28.21
68141;BME280;54941;52.220;104.306;2023-03-19T04:06:22;95471.47;;;8.68;28.83
68141;BME280;54941;52.220;104.306;2023-03-19T04:08:49;95471.22;;;9.77;28.10
68141;BME280;54941;52.220;104.306;2023-03-19T04:11:19;95461.66;;;9.13;28.73
68141;BME280;54941;52.220;104.306;2023-03-19T04:13:46;95455.75;;;8.95;29.12
68141;BME280;54941;52.220;104.306;2023-03-19T04:16:12;95443.41;;;9.45;28.25
68141;BME280;54941;52.220;104.306;2023-03-19T04:18:39;95447.16;;;10.53;26.82
68141;BME280;54941;52.220;104.306;2023-03-19T04:21:05;95443.56;;;9.73;28.06
68141;BME280;54941;52.220;104.306;2023-03-19T04:23:32;95436.28;;;11.03;27.08
68141;BME280;54941;52.220;104.306;2023-03-19T04:26:00;95435.00;;;9.79;29.03
68141;BME280;54941;52.220;104.306;2023-03-19T04:28:28;95426.38;;;9.32;29.18
68141;BME280;54941;52.220;104.306;2023-03-19T04:31:00;95421.00;;;9.22;29.86
68141;BME280;54941;52.220;104.306;2023-03-19T04:33:26;95412.44;;;9.40;29.16
68141;BME280;54941;52.220;104.306;2023-03-19T04:35:53;95415.09;;;10.21;28.23
68141;BME280;54941;52.220;104.306;2023-03-19T04:38:20;95401.22;;;9.22;29.98
68141;BME280;54941;52.220;104.306;2023-03-19T04:40:48;95398.56;;;8.99;31.50
68141;BME280;54941;52.220;104.306;2023-03-19T04:43:15;95402.34;;;9.26;29.33
68141;BME280;54941;52.220;104.306;2023-03-19T04:45:43;95401.91;;;8.70;29.29
68141;BME280;54941;52.220;104.306;2023-03-19T04:48:09;95391.25;;;9.14;27.86
68141;BME280;54941;52.220;104.306;2023-03-19T04:50:37;95389.88;;;8.52;28.93
68141;BME280;54941;52.220;104.306;2023-03-19T04:53:03;95386.09;;;8.55;27.37
68141;BME280;54941;52.220;104.306;2023-03-19T04:55:30;95385.38;;;8.96;26.96
68141;BME280;54941;52.220;104.306;2023-03-19T04:57:56;95383.25;;;8.93;27.14
68141;BME280;54941;52.220;104.306;2023-03-19T05:00:25;95376.56;;;8.73;27.68
68141;BME280;54941;52.220;104.306;2023-03-19T05:02:53;95379.97;;;8.86;26.95
68141;BME280;54941;52.220;104.306;2023-03-19T05:05:19;95377.88;;;8.64;26.17
68141;BME280;54941;52.220;104.306;2023-03-19T05:07:46;95372.56;;;9.07;25.65
68141;BME280;54941;52.220;104.306;2023-03-19T05:10:12;95364.72;;;9.55;25.12
68141;BME280;54941;52.220;104.306;2023-03-19T05:12:38;95369.53;;;9.63;25.12
68141;BME280;54941;52.220;104.306;2023-03-19T05:15:06;95364.81;;;9.95;23.24
68141;BME280;54941;52.220;104.306;2023-03-19T05:17:32;95358.13;;;9.71;23.43
68141;BME280;54941;52.220;104.306;2023-03-19T05:20:00;95347.22;;;9.22;23.66
68141;BME280;54941;52.220;104.306;2023-03-19T05:22:27;95356.09;;;9.85;22.07
68141;BME280;54941;52.220;104.306;2023-03-19T05:24:53;95347.59;;;9.61;23.44
68141;BME280;54941;52.220;104.306;2023-03-19T05:27:20;95339.78;;;9.67;21.25
68141;BME280;54941;52.220;104.306;2023-03-19T05:29:46;95334.50;;;9.74;21.02
68141;BME280;54941;52.220;104.306;2023-03-19T05:32:13;95328.69;;;9.78;20.40
68141;BME280;54941;52.220;104.306;2023-03-19T05:34:39;95323.09;;;9.47;19.96
68141;BME280;54941;52.220;104.306;2023-03-19T05:37:07;95316.84;;;9.31;19.92
68141;BME280;54941;52.220;104.306;2023-03-19T05:39:33;95324.53;;;9.89;20.42
68141;BME280;54941;52.220;104.306;2023-03-19T05:42:00;95314.00;;;10.02;19.79
68141;BME280;54941;52.220;104.306;2023-03-19T05:44:26;95301.22;;;10.07;18.57
68141;BME280;54941;52.220;104.306;2023-03-19T05:46:53;95297.19;;;10.11;18.29
68141;BME280;54941;52.220;104.306;2023-03-19T05:49:19;95291.00;;;10.24;18.38
68141;BME280;54941;52.220;104.306;2023-03-19T05:51:45;95289.84;;;9.92;19.11
68141;BME280;54941;52.220;104.306;2023-03-19T05:54:13;95276.56;;;9.71;21.41
68141;BME280;54941;52.220;104.306;2023-03-19T05:56:40;95267.97;;;9.54;22.16
68141;BME280;54941;52.220;104.306;2023-03-19T05:59:06;95266.13;;;9.90;22.98
68141;BME280;54941;52.220;104.306;2023-03-19T06:01:32;95260.88;;;9.85;23.20
68141;BME280;54941;52.220;104.306;2023-03-19T06:03:59;95253.91;;;9.97;23.09
68141;BME280;54941;52.220;104.306;2023-03-19T06:06:25;95245.25;;;9.51;24.23
68141;BME280;54941;52.220;104.306;2023-03-19T06:08:52;95243.06;;;9.95;23.44
68141;BME280;54941;52.220;104.306;2023-03-19T06:11:20;95243.00;;;9.66;23.06
68141;BME280;54941;52.220;104.306;2023-03-19T06:13:46;95230.19;;;9.95;23.75
68141;BME280;54941;52.220;104.306;2023-03-19T06:16:12;95227.31;;;9.79;22.58
68141;BME280;54941;52.220;104.306;2023-03-19T06:18:39;95211.47;;;9.71;23.77
68141;BME280;54941;52.220;104.306;2023-03-19T06:21:05;95218.25;;;9.89;22.31
68141;BME280;54941;52.220;104.306;2023-03-19T06:23:32;95208.69;;;10.01;21.84
68141;BME280;54941;52.220;104.306;2023-03-19T06:25:58;95201.75;;;9.61;23.36
68141;BME280;54941;52.220;104.306;2023-03-19T06:28:26;95201.53;;;9.63;23.16
68141;BME280;54941;52.220;104.306;2023-03-19T06:30:53;95193.69;;;9.58;23.42
68141;BME280;54941;52.220;104.306;2023-03-19T06:33:19;95186.44;;;9.55;23.91
68141;BME280;54941;52.220;104.306;2023-03-19T06:35:46;95180.63;;;9.88;24.36
68141;BME280;54941;52.220;104.306;2023-03-19T06:38:13;95182.00;;;9.90;25.65
68141;BME280;54941;52.220;104.306;2023-03-19T06:40:39;95172.91;;;9.59;24.79
68141;BME280;54941;52.220;104.306;2023-03-19T06:43:06;95166.88;;;9.94;24.47
68141;BME280;54941;52.220;104.306;2023-03-19T06:45:37;95158.91;;;9.95;23.58
68141;BME280;54941;52.220;104.306;2023-03-19T06:48:04;95154.16;;;9.75;24.45
68141;BME280;54941;52.220;104.306;2023-03-19T06:50:33;95155.22;;;9.91;23.61
68141;BME280;54941;52.220;104.306;2023-03-19T06:52:59;95154.91;;;9.88;23.12
68141;BME280;54941;52.220;104.306;2023-03-19T06:55:26;95154.75;;;9.94;22.86
68141;BME280;54941;52.220;104.306;2023-03-19T06:57:55;95146.78;;;9.79;23.41
68141;BME280;54941;52.220;104.306;2023-03-19T07:00:22;95142.41;;;9.79;23.84
68141;BME280;54941;52.220;104.306;2023-03-19T07:02:50;95137.88;;;9.87;22.79
68141;BME280;54941;52.220;104.306;2023-03-19T07:05:17;95138.03;;;10.08;23.08
68141;BME280;54941;52.220;104.306;2023-03-19T07:07:43;95138.16;;;10.02;23.47
68141;BME280;54941;52.220;104.306;2023-03-19T07:10:10;95129.53;;;10.08;22.93
68141;BME280;54941;52.220;104.306;2023-03-19T07:12:36;95135.06;;;10.00;23.69
68141;BME280;54941;52.220;104.306;2023-03-19T07:15:03;95132.00;;;10.03;23.13
68141;BME280;54941;52.220;104.306;2023-03-19T07:17:30;95122.59;;;10.08;22.52
68141;BME280;54941;52.220;104.306;2023-03-19T07:19:58;95121.03;;;10.07;23.02
68141;BME280;54941;52.220;104.306;2023-03-19T07:22:25;95108.34;;;10.17;22.09
68141;BME280;54941;52.220;104.306;2023-03-19T07:24:54;95105.09;;;9.94;22.91
68141;BME280;54941;52.220;104.306;2023-03-19T07:27:20;95099.81;;;10.00;22.48
68141;BME280;54941;52.220;104.306;2023-03-19T07:29:47;95093.25;;;10.09;23.14
68141;BME280;54941;52.220;104.306;2023-03-19T07:32:17;95094.94;;;10.15;23.48
68141;BME280;54941;52.220;104.306;2023-03-19T07:34:45;95093.00;;;9.94;23.14
68141;BME280;54941;52.220;104.306;2023-03-19T07:37:13;95084.28;;;10.12;22.87
68141;BME280;54941;52.220;104.306;2023-03-19T07:39:39;95078.19;;;10.01;22.92
68141;BME280;54941;52.220;104.306;2023-03-19T07:42:06;95076.47;;;10.07;21.09
68141;BME280;54941;52.220;104.306;2023-03-19T07:44:33;95077.78;;;9.93;22.40
68141;BME280;54941;52.220;104.306;2023-03-19T07:46:59;95069.81;;;9.94;23.54
68141;BME280;54941;52.220;104.306;2023-03-19T07:49:26;95069.38;;;10.14;23.59
68141;BME280;54941;52.220;104.306;2023-03-19T07:51:52;95061.00;;;10.18;23.86
68141;BME280;54941;52.220;104.306;2023-03-19T07:54:20;95063.13;;;10.10;23.58
68141;BME280;54941;52.220;104.306;2023-03-19T07:56:47;95052.31;;;10.08;23.97
68141;BME280;54941;52.220;104.306;2023-03-19T07:59:13;95054.84;;;9.91;25.41
68141;BME280;54941;52.220;104.306;2023-03-19T08:01:40;95050.66;;;10.02;24.62
68141;BME280;54941;52.220;104.306;2023-03-19T08:04:06;95043.06;;;10.23;24.45
68141;BME280;54941;52.220;104.306;2023-03-19T08:06:33;95039.84;;;10.33;25.00
68141;BME280;54941;52.220;104.306;2023-03-19T08:08:59;95037.25;;;10.33;24.50
68141;BME280;54941;52.220;104.306;2023-03-19T08:11:27;95036.28;;;10.06;24.69
68141;BME280;54941;52.220;104.306;2023-03-19T08:13:54;95025.69;;;9.86;25.30
68141;BME280;54941;52.220;104.306;2023-03-19T08:16:20;95020.69;;;9.96;25.09
68141;BME280;54941;52.220;104.306;2023-03-19T08:19:00;95024.03;;;9.79;26.11
68141;BME280;54941;52.220;104.306;2023-03-19T08:21:26;95018.28;;;9.89;26.99
68141;BME280;54941;52.220;104.306;2023-03-19T08:23:53;95012.88;;;9.91;26.48
68141;BME280;54941;52.220;104.306;2023-03-19T08:26:19;95005.31;;;9.84;27.11
68141;BME280;54941;52.220;104.306;2023-03-19T08:28:46;95000.34;;;9.94;27.09
68141;BME280;54941;52.220;104.306;2023-03-19T08:31:13;94997.84;;;9.99;27.56
68141;BME280;54941;52.220;104.306;2023-03-19T08:33:39;94999.19;;;10.18;27.75
68141;BME280;54941;52.220;104.306;2023-03-19T08:36:09;94997.31;;;9.97;28.36
68141;BME280;54941;52.220;104.306;2023-03-19T08:38:38;94990.91;;;10.00;28.28
68141;BME280;54941;52.220;104.306;2023-03-19T08:41:05;94987.63;;;9.88;28.53
68141;BME280;54941;52.220;104.306;2023-03-19T08:43:33;94979.91;;;10.04;28.10
68141;BME280;54941;52.220;104.306;2023-03-19T08:46:00;94974.22;;;10.02;28.46
68141;BME280;54941;52.220;104.306;2023-03-19T08:48:26;94969.94;;;9.91;28.45
68141;BME280;54941;52.220;104.306;2023-03-19T08:50:57;94966.56;;;9.91;28.57
68141;BME280;54941;52.220;104.306;2023-03-19T08:53:26;94958.84;;;9.91;27.81
68141;BME280;54941;52.220;104.306;2023-03-19T08:55:53;94956.84;;;9.93;28.46
68141;BME280;54941;52.220;104.306;2023-03-19T08:58:20;94954.72;;;9.90;28.24
68141;BME280;54941;52.220;104.306;2023-03-19T09:00:47;94957.06;;;9.91;28.08
68141;BME280;54941;52.220;104.306;2023-03-19T09:03:14;94949.28;;;9.86;27.70
68141;BME280;54941;52.220;104.306;2023-03-19T09:05:41;94939.22;;;9.68;28.42
68141;BME280;54941;52.220;104.306;2023-03-19T09:08:07;94934.84;;;9.68;27.69
68141;BME280;54941;52.220;104.306;2023-03-19T09:10:36;94937.50;;;9.73;27.34
68141;BME280;54941;52.220;104.306;2023-03-19T09:13:02;94925.88;;;9.71;27.90
68141;BME280;54941;52.220;104.306;2023-03-19T09:15:29;94931.91;;;9.60;28.48
68141;BME280;54941;52.220;104.306;2023-03-19T09:17:56;94933.13;;;9.57;28.04
68141;BME280;54941;52.220;104.306;2023-03-19T09:20:22;94924.78;;;9.50;27.49
68141;BME280;54941;52.220;104.306;2023-03-19T09:22:49;94924.53;;;9.35;27.89
68141;BME280;54941;52.220;104.306;2023-03-19T09:25:15;94926.47;;;9.28;29.13
68141;BME280;54941;52.220;104.306;2023-03-19T09:27:43;94920.69;;;9.21;28.67
68141;BME280;54941;52.220;104.306;2023-03-19T09:30:11;94915.25;;;9.17;29.33
68141;BME280;54941;52.220;104.306;2023-03-19T09:32:37;94911.41;;;9.03;30.52
68141;BME280;54941;52.220;104.306;2023-03-19T09:35:05;94905.94;;;9.00;29.29
68141;BME280;54941;52.220;104.306;2023-03-19T09:37:32;94909.31;;;9.00;29.47
68141;BME280;54941;52.220;104.306;2023-03-19T09:39:58;94902.88;;;8.86;29.97
68141;BME280;54941;52.220;104.306;2023-03-19T09:42:47;94899.34;;;8.75;30.31
68141;BME280;54941;52.220;104.306;2023-03-19T09:45:17;94895.06;;;8.81;29.93
68141;BME280;54941;52.220;104.306;2023-03-19T09:47:45;94894.44;;;8.74;30.04
68141;BME280;54941;52.220;104.306;2023-03-19T09:50:14;94886.19;;;8.72;29.46
68141;BME280;54941;52.220;104.306;2023-03-19T09:52:43;94884.38;;;8.72;29.95
68141;BME280;54941;52.220;104.306;2023-03-19T09:55:15;94871.41;;;8.51;30.19
68141;BME280;54941;52.220;104.306;2023-03-19T09:57:46;94876.47;;;8.34;30.73
68141;BME280;54941;52.220;104.306;2023-03-19T10:00:20;94872.91;;;8.35;30.36
68141;BME280;54941;52.220;104.306;2023-03-19T10:02:51;94875.59;;;8.28;31.06
68141;BME280;54941;52.220;104.306;2023-03-19T10:05:26;94868.34;;;8.14;31.75
68141;BME280;54941;52.220;104.306;2023-03-19T10:08:11;94863.88;;;8.09;31.54
68141;BME280;54941;52.220;104.306;2023-03-19T10:10:49;94861.91;;;8.00;31.89
68141;BME280;54941;52.220;104.306;2023-03-19T10:13:27;94858.88;;;7.91;33.14
68141;BME280;54941;52.220;104.306;2023-03-19T10:15:55;94857.22;;;7.73;32.42
68141;BME280;54941;52.220;104.306;2023-03-19T10:18:26;94856.56;;;7.43;41.94
68141;BME280;54941;52.220;104.306;2023-03-19T10:20:56;94856.25;;;6.87;49.36
68141;BME280;54941;52.220;104.306;2023-03-19T10:23:31;94861.25;;;6.52;50.56
68141;BME280;54941;52.220;104.306;2023-03-19T10:26:02;94850.91;;;6.28;52.51
68141;BME280;54941;52.220;104.306;2023-03-19T10:28:30;94853.53;;;6.22;50.53
68141;BME280;54941;52.220;104.306;2023-03-19T10:31:04;94847.94;;;5.95;51.01
68141;BME280;54941;52.220;104.306;2023-03-19T10:33:40;94843.72;;;5.82;48.20
68141;BME280;54941;52.220;104.306;2023-03-19T10:36:10;94842.84;;;5.52;49.77
68141;BME280;54941;52.220;104.306;2023-03-19T10:38:38;94851.09;;;5.29;52.52
68141;BME280;54941;52.220;104.306;2023-03-19T10:41:15;94839.91;;;5.06;56.00
68141;BME280;54941;52.220;104.306;2023-03-19T10:43:51;94840.66;;;4.81;53.93
68141;BME280;54941;52.220;104.306;2023-03-19T10:46:18;94842.34;;;4.63;56.46
68141;BME280;54941;52.220;104.306;2023-03-19T10:48:45;94840.06;;;4.48;57.11
68141;BME280;54941;52.220;104.306;2023-03-19T10:51:13;94842.78;;;4.15;57.62
68141;BME280;54941;52.220;104.306;2023-03-19T10:53:40;94834.19;;;4.10;55.16
68141;BME280;54941;52.220;104.306;2023-03-19T10:56:17;94837.31;;;4.12;53.20
68141;BME280;54941;52.220;104.306;2023-03-19T10:58:55;94833.81;;;4.06;54.81
68141;BME280;54941;52.220;104.306;2023-03-19T11:01:26;94839.66;;;4.07;52.44
68141;BME280;54941;52.220;104.306;2023-03-19T11:03:55;94834.06;;;3.85;55.38
68141;BME280;54941;52.220;104.306;2023-03-19T11:06:25;94832.19;;;3.54;57.53
68141;BME280;54941;52.220;104.306;2023-03-19T11:08:57;94831.22;;;3.49;55.79
68141;BME280;54941;52.220;104.306;2023-03-19T11:11:25;94840.06;;;3.20;58.54
68141;BME280;54941;52.220;104.306;2023-03-19T11:14:05;94843.00;;;3.10;58.19
68141;BME280;54941;52.220;104.306;2023-03-19T11:16:45;94835.94;;;2.79;59.34
68141;BME280;54941;52.220;104.306;2023-03-19T11:19:18;94838.44;;;2.66;60.67
68141;BME280;54941;52.220;104.306;2023-03-19T11:21:53;94843.72;;;2.52;59.12
68141;BME280;54941;52.220;104.306;2023-03-19T11:24:25;94834.94;;;2.67;54.34
68141;BME280;54941;52.220;104.306;2023-03-19T11:26:53;94835.34;;;2.77;55.60
68141;BME280;54941;52.220;104.306;2023-03-19T11:29:24;94845.28;;;2.53;57.80
68141;BME280;54941;52.220;104.306;2023-03-19T11:31:58;94840.56;;;2.36;60.43
68141;BME280;54941;52.220;104.306;2023-03-19T11:34:33;94840.97;;;1.86;65.88
68141;BME280;54941;52.220;104.306;2023-03-19T11:37:05;94840.94;;;1.79;63.81
68141;BME280;54941;52.220;104.306;2023-03-19T11:39:39;94843.50;;;1.86;58.81
68141;BME280;54941;52.220;104.306;2023-03-19T11:42:42;94845.16;;;2.07;54.60
68141;BME280;54941;52.220;104.306;2023-03-19T11:45:18;94844.97;;;2.08;54.83
68141;BME280;54941;52.220;104.306;2023-03-19T11:47:58;94841.34;;;1.83;57.95
68141;BME280;54941;52.220;104.306;2023-03-19T11:50:34;94838.81;;;1.48;61.41
68141;BME280;54941;52.220;104.306;2023-03-19T11:53:16;94840.44;;;1.28;62.72
68141;BME280;54941;52.220;104.306;2023-03-19T11:55:50;94842.88;;;1.43;61.91
68141;BME280;54941;52.220;104.306;2023-03-19T11:58:39;94840.94;;;1.45;59.87
68141;BME280;54941;52.220;104.306;2023-03-19T12:01:16;94839.69;;;1.34;60.85
68141;BME280;54941;52.220;104.306;2023-03-19T12:06:54;94842.66;;;1.10;58.37
68141;BME280;54941;52.220;104.306;2023-03-19T12:09:31;94834.66;;;1.07;58.59
68141;BME280;54941;52.220;104.306;2023-03-19T12:12:08;94829.97;;;1.10;58.84
68141;BME280;54941;52.220;104.306;2023-03-19T12:14:40;94829.66;;;0.92;61.50
68141;BME280;54941;52.220;104.306;2023-03-19T12:17:20;94821.31;;;0.56;66.53
68141;BME280;54941;52.220;104.306;2023-03-19T12:20:12;94828.34;;;0.54;66.82
68141;BME280;54941;52.220;104.306;2023-03-19T12:22:59;94832.66;;;0.60;64.50
68141;BME280;54941;52.220;104.306;2023-03-19T12:25:38;94821.50;;;0.75;58.85
68141;BME280;54941;52.220;104.306;2023-03-19T12:28:12;94832.59;;;0.95;55.31
68141;BME280;54941;52.220;104.306;2023-03-19T12:30:46;94826.41;;;1.05;53.90
68141;BME280;54941;52.220;104.306;2023-03-19T12:33:27;94823.78;;;0.91;57.53
68141;BME280;54941;52.220;104.306;2023-03-19T12:35:58;94815.13;;;0.58;61.32
68141;BME280;54941;52.220;104.306;2023-03-19T12:38:29;94824.66;;;0.56;61.92
68141;BME280;54941;52.220;104.306;2023-03-19T12:40:59;94828.38;;;0.18;64.40
68141;BME280;54941;52.220;104.306;2023-03-19T12:43:32;94826.03;;;0.02;67.79
68141;BME280;54941;52.220;104.306;2023-03-19T12:46:06;94830.94;;;0.03;69.99
68141;BME280;54941;52.220;104.306;2023-03-19T12:48:39;94828.41;;;0.03;68.50
68141;BME280;54941;52.220;104.306;2023-03-19T12:51:14;94829.88;;;0.12;67.05
68141;BME280;54941;52.220;104.306;2023-03-19T12:53:46;94832.56;;;0.25;64.60
68141;BME280;54941;52.220;104.306;2023-03-19T12:56:21;94830.59;;;0.06;65.58
68141;BME280;54941;52.220;104.306;2023-03-19T12:58:54;94821.19;;;0.00;63.53
68141;BME280;54941;52.220;104.306;2023-03-19T13:01:25;94819.25;;;-0.13;63.29